Time;durP1;ratioP1;P1;durP2;ratioP2;P2;SDS_P1;SDS_P2;PMS_P1;PMS_P2;Temp;Humidity;BMP_temperature;BMP_pressure;BME280_temperature;BME280_humidity;BME280_pressure;Samples;Min_cycle;Max_cycle;Signal;HPM_P1;HPM_P2
2022/08/19 00:01:42;;;;;;;9.88;5.33;;;;;;;20.50;63.12;100002.95;1653050;85;21256;-57
2022/08/19 00:04:52;;;;;;;12.05;5.83;;;;;;;20.47;63.19;100001.48;1673204;85;21240;-56
2022/08/19 00:07:59;;;;;;;14.83;5.62;;;;;;;20.45;63.24;100003.70;1656441;84;21383;-56
2022/08/19 00:11:08;;;;;;;12.93;5.55;;;;;;;20.43;63.30;99997.53;1660568;82;21241;-57
2022/08/19 00:14:17;;;;;;;9.20;5.25;;;;;;;20.39;63.37;100010.23;1681623;85;21237;-56
2022/08/19 00:17:23;;;;;;;12.10;5.55;;;;;;;20.37;63.46;100011.58;1650741;84;21289;-58
2022/08/19 00:20:29;;;;;;;15.43;5.42;;;;;;;20.34;63.52;100001.78;1671098;85;21253;-57
2022/08/19 00:23:36;;;;;;;14.73;5.40;;;;;;;20.30;63.55;99995.05;1657716;84;21471;-57
2022/08/19 00:26:42;;;;;;;12.13;5.25;;;;;;;20.26;63.55;99999.97;1668960;83;21225;-57
2022/08/19 00:29:50;;;;;;;10.20;5.12;;;;;;;20.21;63.68;99997.08;1651183;84;21229;-57
2022/08/19 00:32:56;;;;;;;8.20;5.12;;;;;;;20.16;63.70;100005.31;1652182;84;21241;-58
2022/08/19 00:36:04;;;;;;;12.40;5.45;;;;;;;20.11;63.72;100003.24;1644617;84;21267;-58
2022/08/19 00:39:13;;;;;;;11.20;5.20;;;;;;;20.05;63.84;100001.99;1637378;86;21225;-57
2022/08/19 00:42:20;;;;;;;7.37;5.25;;;;;;;20.00;63.86;100002.73;1656215;86;21265;-57
2022/08/19 00:45:35;;;;;;;12.58;5.15;;;;;;;19.93;63.91;100003.97;1675523;83;21216;-56
2022/08/19 00:48:38;;;;;;;10.15;5.55;;;;;;;19.87;64.02;100003.00;1667809;84;21270;-58
2022/08/19 00:51:44;;;;;;;12.93;5.25;;;;;;;19.81;64.15;100005.38;1674474;84;21264;-57
2022/08/19 00:54:52;;;;;;;12.30;5.55;;;;;;;19.81;64.33;100004.52;1676826;84;21232;-57
2022/08/19 00:58:05;;;;;;;12.68;5.45;;;;;;;19.79;64.39;100001.99;1668763;83;21193;-57
2022/08/19 01:01:11;;;;;;;;;;;;;;;19.80;64.48;100010.65;1650060;84;21242;-58
2022/08/19 01:04:17;;;;;;;8.85;4.90;;;;;;;19.79;64.54;100005.34;1679091;85;20195;-58
2022/08/19 01:07:23;;;;;;;12.25;4.72;;;;;;;19.75;64.59;100004.13;1680341;85;21236;-58
2022/08/19 01:10:36;;;;;;;14.40;5.62;;;;;;;19.69;64.58;100005.11;1642430;84;21217;-56
2022/08/19 01:13:43;;;;;;;11.43;6.00;;;;;;;19.66;64.69;100002.82;1671341;84;21269;-56
2022/08/19 01:16:49;;;;;;;13.13;6.58;;;;;;;19.62;64.71;100001.06;1671384;84;21293;-56
2022/08/19 01:19:56;;;;;;;12.80;5.33;;;;;;;19.57;64.79;100002.34;1651304;84;21221;-56
2022/08/19 01:23:05;;;;;;;13.20;5.40;;;;;;;19.53;64.89;100003.07;1650606;86;21214;-57
2022/08/19 01:26:12;;;;;;;10.68;5.00;;;;;;;19.49;65.01;100006.05;1663446;83;21232;-56
2022/08/19 01:29:19;;;;;;;10.82;5.50;;;;;;;19.50;65.14;100003.56;1663288;84;21257;-56
2022/08/19 01:32:25;;;;;;;13.08;5.37;;;;;;;19.47;65.18;100004.90;1654772;83;21234;-56
2022/08/19 01:35:34;;;;;;;15.72;5.92;;;;;;;19.42;65.22;100003.39;1684154;85;21236;-56
2022/08/19 01:38:43;;;;;;;14.95;5.65;;;;;;;19.43;65.35;100001.44;1671811;83;21288;-57
2022/08/19 01:41:48;;;;;;;16.35;5.35;;;;;;;19.44;65.46;99997.59;1663972;84;21285;-57
2022/08/19 01:44:54;;;;;;;14.98;6.12;;;;;;;19.43;65.52;100000.05;1660057;83;21225;-57
2022/08/19 01:48:00;;;;;;;16.67;5.80;;;;;;;19.43;65.55;99998.66;1675145;84;21212;-55
2022/08/19 01:51:07;;;;;;;16.20;5.35;;;;;;;19.43;65.61;99998.12;1647574;84;21327;-57
2022/08/19 01:54:15;;;;;;;12.33;5.67;;;;;;;19.42;65.68;99997.84;1644007;84;21369;-57
2022/08/19 01:57:22;;;;;;;11.45;5.40;;;;;;;19.40;65.70;99997.22;1655130;83;21852;-57
2022/08/19 02:00:30;;;;;;;15.93;6.12;;;;;;;19.39;65.76;99998.86;1620590;85;21313;-57
2022/08/19 02:03:36;;;;;;;11.63;6.05;;;;;;;19.37;65.83;99999.10;1639701;83;21222;-55
2022/08/19 02:06:43;;;;;;;12.15;5.12;;;;;;;19.36;65.88;100004.89;1632183;83;21229;-58
2022/08/19 02:09:51;;;;;;;12.33;5.47;;;;;;;19.35;65.93;100008.20;1644736;84;21302;-56
2022/08/19 02:12:59;;;;;;;12.73;5.55;;;;;;;19.34;65.99;100000.41;1651580;82;21909;-55
2022/08/19 02:16:05;;;;;;;13.32;5.15;;;;;;;19.33;66.03;99999.83;1637034;83;21328;-56
2022/08/19 02:19:11;;;;;;;13.72;5.72;;;;;;;19.30;66.10;100002.00;1639225;82;21312;-57
2022/08/19 02:22:17;;;;;;;11.43;5.95;;;;;;;19.29;66.18;100001.70;1619089;84;21235;-56
2022/08/19 02:25:23;;;;;;;17.35;5.92;;;;;;;19.30;66.26;100003.38;1627197;85;21246;-56
2022/08/19 02:28:30;;;;;;;19.77;6.25;;;;;;;19.33;66.39;100004.00;1653440;85;21292;-55
2022/08/19 02:31:36;;;;;;;14.87;5.65;;;;;;;19.34;66.39;100010.69;1638990;83;21231;-56
2022/08/19 02:34:43;;;;;;;13.15;5.50;;;;;;;19.31;66.41;100009.23;1649473;83;21817;-56
2022/08/19 02:41:21;;;;;;;12.35;5.65;;;;;;;19.28;66.46;100014.44;1683767;85;21382;-57
2022/08/19 02:44:28;;;;;;;13.43;5.17;;;;;;;19.23;66.49;100017.88;1673769;84;21698;-57
2022/08/19 02:47:33;;;;;;;13.72;6.12;;;;;;;19.19;66.59;100016.69;1667115;84;21240;-56
2022/08/19 02:50:39;;;;;;;14.30;6.60;;;;;;;19.15;66.63;100026.55;1668729;83;21228;-55
2022/08/19 02:53:49;;;;;;;12.37;6.05;;;;;;;19.12;66.70;100027.04;1616158;85;21371;-57
2022/08/19 02:56:55;;;;;;;12.05;5.60;;;;;;;19.11;66.78;100021.73;1629262;83;21259;-56
2022/08/19 03:00:02;;;;;;;18.10;6.47;;;;;;;19.06;66.86;100018.30;1669755;84;21228;-57
2022/08/19 03:03:08;;;;;;;10.78;6.42;;;;;;;19.05;66.92;100018.00;1679990;84;21730;-57
2022/08/19 03:06:22;;;;;;;11.70;6.33;;;;;;;19.05;67.02;100026.33;1676719;85;21241;-55
2022/08/19 03:09:29;;;;;;;12.60;5.92;;;;;;;19.06;67.12;100025.23;1656991;86;21495;-57
2022/08/19 03:12:34;;;;;;;12.78;6.12;;;;;;;19.07;67.13;100020.53;1648627;81;21219;-56
2022/08/19 03:15:41;;;;;;;14.43;6.33;;;;;;;19.05;67.17;100017.15;1661007;83;21247;-55
2022/08/19 03:18:47;;;;;;;10.05;5.75;;;;;;;19.07;67.31;100024.70;1646598;81;21295;-58
2022/08/19 03:21:55;;;;;;;16.90;6.15;;;;;;;19.12;67.42;100027.04;1640852;85;21217;-56
2022/08/19 03:25:01;;;;;;;13.72;6.53;;;;;;;19.17;67.48;100036.89;1665366;84;21296;-56
2022/08/19 03:28:09;;;;;;;16.82;6.85;;;;;;;19.21;67.53;100032.56;1622516;84;21258;-57
2022/08/19 03:31:18;;;;;;;12.45;6.12;;;;;;;19.26;67.55;100038.78;1609870;83;21266;-58
2022/08/19 03:34:31;;;;;;;13.15;6.05;;;;;;;19.30;67.60;100043.63;1608825;84;21226;-57
2022/08/19 03:37:36;;;;;;;17.07;6.20;;;;;;;19.31;67.57;100036.98;1650070;84;21611;-56
2022/08/19 03:40:45;;;;;;;12.50;5.97;;;;;;;19.33;67.57;100030.66;1631610;84;21203;-56
2022/08/19 03:43:51;;;;;;;14.23;6.67;;;;;;;19.33;67.62;100039.52;1679435;84;21569;-57
2022/08/19 03:46:59;;;;;;;20.75;6.47;;;;;;;19.36;67.70;100035.44;1674265;84;21644;-57
2022/08/19 03:50:05;;;;;;;19.82;6.08;;;;;;;19.38;67.79;100034.66;1685388;83;21216;-58
2022/08/19 03:53:13;;;;;;;14.15;7.28;;;;;;;19.43;67.92;100029.20;1686264;84;21240;-57
2022/08/19 03:56:20;;;;;;;18.10;6.62;;;;;;;19.48;67.97;100028.79;1687078;84;21269;-56
2022/08/19 03:59:38;;;;;;;13.93;5.70;;;;;;;19.55;68.08;100033.66;1648185;83;21253;-57
2022/08/19 04:02:45;;;;;;;19.00;6.53;;;;;;;19.62;68.10;100032.15;1661252;84;21518;-57
2022/08/19 04:05:56;;;;;;;19.57;7.85;;;;;;;19.66;68.12;100032.83;1646554;82;21255;-58
2022/08/19 04:09:03;;;;;;;18.17;10.38;;;;;;;19.74;68.24;100032.44;1614001;83;21235;-57
2022/08/19 04:12:11;;;;;;;16.20;7.08;;;;;;;19.81;68.27;100037.86;1628049;84;21280;-53
2022/08/19 04:15:19;;;;;;;24.12;13.98;;;;;;;19.86;68.28;100031.89;1617005;84;21312;-57
2022/08/19 04:18:26;;;;;;;15.45;7.90;;;;;;;19.93;68.37;100034.54;1619775;84;21254;-56
2022/08/19 04:21:34;;;;;;;17.62;7.05;;;;;;;20.02;68.42;100038.08;1611186;84;21265;-53
2022/08/19 04:24:44;;;;;;;12.13;6.22;;;;;;;20.09;68.44;100042.11;1612733;84;21256;-52
2022/08/19 04:27:56;;;;;;;27.15;7.47;;;;;;;20.14;68.52;100041.70;1615093;85;21297;-53
2022/08/19 04:31:10;;;;;;;20.45;8.28;;;;;;;20.23;68.63;100040.77;1621539;82;21814;-52
2022/08/19 04:34:17;;;;;;;19.45;8.98;;;;;;;20.33;68.76;100041.81;1603985;85;21316;-55
2022/08/19 04:37:26;;;;;;;21.42;11.25;;;;;;;20.45;68.80;100047.34;1654461;84;21395;-57
2022/08/19 04:44:02;;;;;;;15.75;6.75;;;;;;;20.63;68.74;100055.46;1654560;85;21282;-58
2022/08/19 04:47:09;;;;;;;12.68;6.08;;;;;;;20.64;68.69;100051.61;1650137;85;21244;-56
2022/08/19 04:50:22;;;;;;;18.98;6.75;;;;;;;20.67;68.73;100056.14;1661360;85;21196;-57
2022/08/19 04:53:28;;;;;;;15.72;6.85;;;;;;;20.71;68.74;100058.70;1646122;85;21236;-56
2022/08/19 04:56:40;;;;;;;18.02;7.03;;;;;;;20.77;68.84;100067.44;1633348;85;21242;-56
2022/08/19 04:59:46;;;;;;;19.35;7.25;;;;;;;20.86;68.91;100062.86;1629040;83;21264;-56
2022/08/19 05:02:56;;;;;;;20.72;7.30;;;;;;;20.91;68.95;100067.98;1645635;84;21282;-57
2022/08/19 05:06:04;;;;;;;16.62;6.97;;;;;;;21.02;69.04;100066.25;1644629;84;21848;-57
2022/08/19 05:09:12;;;;;;;16.93;7.08;;;;;;;21.08;68.99;100064.70;1647389;85;21210;-58
2022/08/19 05:12:18;;;;;;;17.98;7.92;;;;;;;21.13;69.00;100057.84;1661173;85;21297;-57
2022/08/19 05:15:42;;;;;;;20.97;8.38;;;;;;;21.20;69.06;100066.02;1685338;84;21239;-58
2022/08/19 05:22:35;;;;;;;20.68;7.58;;;;;;;21.41;69.23;100081.42;1674592;83;21282;-56
2022/08/19 05:25:42;;;;;;;19.93;8.03;;;;;;;21.53;69.27;100089.13;1669368;85;21213;-56
2022/08/19 05:28:55;;;;;;;16.82;8.10;;;;;;;21.59;69.22;100083.95;1666367;82;21318;-55
2022/08/19 05:32:04;;;;;;;17.62;7.90;;;;;;;21.68;69.32;100086.59;1665260;82;21220;-56
2022/08/19 05:35:11;;;;;;;17.02;7.72;;;;;;;21.80;69.41;100090.72;1646496;82;21251;-55
2022/08/19 05:38:27;;;;;;;16.27;8.25;;;;;;;21.89;69.43;100098.92;1647275;84;21379;-56
2022/08/19 05:41:47;;;;;;;20.60;9.18;;;;;;;21.99;69.43;100094.33;1644169;84;21295;-56
2022/08/19 05:44:58;;;;;;;19.30;9.15;;;;;;;22.07;69.47;100086.09;1622040;86;21640;-55
2022/08/19 05:48:13;;;;;;;23.20;8.38;;;;;;;22.16;69.50;100088.19;1642349;84;21351;-56
2022/08/19 05:51:23;;;;;;;22.10;8.43;;;;;;;22.28;69.51;100085.83;1638731;84;21231;-57
2022/08/19 05:54:29;;;;;;;17.87;7.78;;;;;;;22.34;69.42;100089.81;1626650;84;21295;-55
2022/08/19 05:57:35;;;;;;;18.67;9.43;;;;;;;22.35;69.32;100101.80;1650558;83;21367;-55
2022/08/19 06:00:42;;;;;;;18.40;8.95;;;;;;;22.35;69.27;100101.80;1641785;85;21328;-55
2022/08/19 06:03:48;;;;;;;18.95;8.35;;;;;;;22.39;69.34;100106.59;1643351;85;21283;-56
2022/08/19 06:06:58;;;;;;;15.90;7.78;;;;;;;22.48;69.41;100117.61;1663848;83;21230;-55
2022/08/19 06:10:06;;;;;;;18.27;8.63;;;;;;;22.50;69.33;100115.95;1642546;83;21223;-54
2022/08/19 06:13:14;;;;;;;18.20;8.68;;;;;;;22.52;69.29;100114.61;1672411;84;21903;-55
2022/08/19 06:16:23;;;;;;;19.35;8.18;;;;;;;22.55;69.36;100113.27;1655840;84;21277;-56
2022/08/19 06:19:31;;;;;;;20.27;8.93;;;;;;;22.63;69.38;100117.81;1629608;83;21320;-56
2022/08/19 06:22:39;;;;;;;23.35;8.48;;;;;;;22.67;69.38;100122.33;1662242;85;21651;-54
2022/08/19 06:25:49;;;;;;;16.45;8.75;;;;;;;22.73;69.48;100121.28;1633233;84;21617;-56
2022/08/19 06:29:21;;;;;;;19.40;8.00;;;;;;;22.81;69.51;100125.86;1650643;83;21294;-56
2022/08/19 06:32:36;;;;;;;14.28;7.95;;;;;;;22.89;69.50;100133.77;1677000;84;21757;-55
2022/08/19 06:35:48;;;;;;;16.90;8.45;;;;;;;22.98;69.53;100135.52;1683925;83;21649;-57
2022/08/19 06:38:57;;;;;;;13.53;8.85;;;;;;;23.08;69.50;100144.88;1662308;85;21239;-55
2022/08/19 06:42:22;;;;;;;13.60;8.38;;;;;;;23.11;69.41;100147.14;1621849;82;21310;-58
2022/08/19 06:45:46;;;;;;;16.02;8.43;;;;;;;23.17;69.46;100144.69;1621908;83;21745;-57
2022/08/19 06:48:55;;;;;;;17.10;8.65;;;;;;;23.24;69.44;100146.73;1656885;83;21883;-56
2022/08/19 06:52:05;;;;;;;16.97;8.70;;;;;;;23.31;69.45;100146.52;1707758;82;21246;-55
2022/08/19 06:55:23;;;;;;;17.02;8.88;;;;;;;23.37;69.41;100145.48;1672626;82;21250;-60
2022/08/19 06:58:38;;;;;;;18.27;9.18;;;;;;;23.37;69.36;100147.70;1631264;86;21302;-53
2022/08/19 07:01:53;;;;;;;23.40;9.30;;;;;;;23.48;69.46;100146.69;1633037;84;21266;-60
2022/08/19 07:05:04;;;;;;;19.30;8.70;;;;;;;23.57;69.36;100150.70;1643106;84;21231;-59
2022/08/19 07:08:12;;;;;;;22.13;9.05;;;;;;;23.58;69.27;100155.72;1666893;85;21247;-60
2022/08/19 07:11:36;;;;;;;11.43;7.80;;;;;;;23.58;69.25;100157.11;1667047;82;21269;-59
2022/08/19 07:15:23;;;;;;;16.48;7.83;;;;;;;23.63;69.33;100148.23;1679658;84;21238;-59
2022/08/19 07:18:59;;;;;;;21.75;8.68;;;;;;;23.73;69.35;100156.41;1636707;83;21211;-58
2022/08/19 07:22:13;;;;;;;17.48;8.33;;;;;;;23.76;69.28;100155.33;1674785;82;21868;-56
2022/08/19 07:25:43;;;;;;;14.93;7.92;;;;;;;23.80;69.34;100157.86;1642629;84;21316;-60
2022/08/19 07:28:52;;;;;;;16.73;8.95;;;;;;;23.81;69.29;100152.58;1657211;84;21859;-57
2022/08/19 07:32:03;;;;;;;17.10;9.28;;;;;;;23.84;69.26;100153.44;1660895;83;21259;-58
2022/08/19 07:35:15;;;;;;;14.05;8.98;;;;;;;23.82;69.19;100154.83;1662893;83;21247;-59
2022/08/19 07:38:23;;;;;;;16.27;9.15;;;;;;;23.83;69.27;100160.16;1656828;83;21283;-59
2022/08/19 07:41:31;;;;;;;14.47;9.03;;;;;;;23.94;69.40;100171.70;1676031;83;21234;-58
2022/08/19 07:44:40;;;;;;;21.00;9.43;;;;;;;24.06;69.39;100172.37;1676113;84;21806;-58
2022/08/19 07:47:49;;;;;;;22.73;9.73;;;;;;;24.13;69.34;100177.19;1640718;86;21241;-55
2022/08/19 07:51:01;;;;;;;17.17;9.63;;;;;;;24.31;69.39;100179.53;1644692;86;21258;-55
2022/08/19 07:54:06;;;;;;;17.23;9.80;;;;;;;24.48;69.28;100176.56;1652635;86;21259;-56
2022/08/19 07:57:16;;;;;;;15.15;9.43;;;;;;;24.54;69.08;100172.13;1665015;83;21273;-57
2022/08/19 08:00:24;;;;;;;18.15;10.23;;;;;;;24.59;68.92;100179.13;1653509;83;21244;-58
2022/08/19 08:10:28;;;;;;;20.85;9.10;;;;;;;24.73;68.90;100181.77;1717673;83;21211;-55
2022/08/19 08:13:37;;;;;;;15.10;8.78;;;;;;;24.78;68.85;100186.55;1672269;83;21250;-55
2022/08/19 08:16:45;;;;;;;18.85;9.95;;;;;;;24.82;68.91;100182.92;1657902;84;21768;-55
2022/08/19 08:19:54;;;;;;;23.55;9.58;;;;;;;24.86;68.84;100177.62;1649607;82;21308;-56
2022/08/19 08:26:30;;;;;;;15.15;9.60;;;;;;;25.04;68.96;100170.95;1671809;82;21214;-57
2022/08/19 08:29:40;;;;;;;13.83;9.78;;;;;;;25.12;68.92;100179.37;1620172;87;21252;-55
2022/08/19 08:32:46;;;;;;;15.98;8.75;;;;;;;25.27;68.97;100172.98;1603549;86;21310;-55
2022/08/19 08:35:56;;;;;;;19.30;9.23;;;;;;;25.39;68.91;100180.05;1634783;84;21231;-56
2022/08/19 08:39:05;;;;;;;16.93;9.08;;;;;;;25.53;68.88;100185.97;1655171;85;22127;-58
2022/08/19 08:42:26;;;;;;;21.00;9.70;;;;;;;25.59;68.70;100196.06;1681535;81;21240;-57
2022/08/19 08:45:33;;;;;;;17.02;8.40;;;;;;;25.55;68.46;100200.53;1630768;83;21268;-56
2022/08/19 08:48:53;;;;;;;16.70;8.90;;;;;;;25.55;68.53;100187.91;1679830;82;21366;-57
2022/08/19 08:52:18;;;;;;;19.60;8.33;;;;;;;25.58;68.62;100188.20;1666238;85;21800;-58
2022/08/19 08:55:31;;;;;;;15.28;8.93;;;;;;;25.67;68.62;100181.49;1675940;84;21259;-56
2022/08/19 08:59:01;;;;;;;18.73;8.13;;;;;;;25.69;68.57;100189.08;1656232;83;21793;-56
2022/08/19 09:02:08;;;;;;;18.60;8.63;;;;;;;25.76;68.47;100189.07;1651987;84;21271;-56
2022/08/19 09:05:23;;;;;;;22.00;9.23;;;;;;;25.78;68.44;100183.19;1662344;83;21238;-55
2022/08/19 09:08:42;;;;;;;18.55;8.78;;;;;;;25.82;68.39;100194.11;1656311;84;21400;-58
2022/08/19 09:12:12;;;;;;;18.27;8.73;;;;;;;25.79;68.24;100188.51;1629772;85;21234;-55
2022/08/19 09:15:23;;;;;;;17.32;8.85;;;;;;;25.83;68.35;100184.59;1658706;83;21799;-58
2022/08/19 09:18:32;;;;;;;16.55;8.40;;;;;;;25.92;68.36;100188.51;1630170;83;21280;-56
2022/08/19 09:21:38;;;;;;;15.58;8.90;;;;;;;25.96;68.31;100189.06;1651913;84;21216;-57
2022/08/19 09:24:44;;;;;;;14.10;8.25;;;;;;;26.03;68.24;100191.07;1631062;85;21246;-57
2022/08/19 09:27:53;;;;;;;16.20;9.23;;;;;;;26.18;68.31;100193.00;1646419;83;21599;-56
2022/08/19 09:31:02;;;;;;;17.30;8.20;;;;;;;26.40;68.25;100207.00;1643572;85;21294;-56
2022/08/19 09:34:08;;;;;;;20.15;8.85;;;;;;;26.65;68.18;100201.94;1667925;83;21277;-58
2022/08/19 09:37:18;;;;;;;13.22;7.78;;;;;;;26.88;68.00;100204.09;1620709;86;21252;-57
2022/08/19 09:40:25;;;;;;;22.40;8.88;;;;;;;27.03;67.79;100200.38;1634533;86;21241;-59
2022/08/19 09:43:36;;;;;;;15.95;8.18;;;;;;;27.14;67.58;100202.87;1651071;83;21318;-59
2022/08/19 09:46:46;;;;;;;16.15;8.03;;;;;;;27.23;67.42;100201.12;1663929;83;21220;-58
2022/08/19 09:49:54;;;;;;;10.90;7.85;;;;;;;27.34;67.29;100209.81;1671962;84;21209;-59
2022/08/19 09:53:01;;;;;;;13.78;8.70;;;;;;;27.39;67.05;100203.31;1663739;84;21785;-58
2022/08/19 09:56:09;;;;;;;17.60;8.38;;;;;;;27.49;67.01;100197.64;1681175;82;21578;-57
2022/08/19 09:59:20;;;;;;;13.53;7.58;;;;;;;27.54;66.85;100197.02;1664641;82;21294;-57
2022/08/19 10:02:29;;;;;;;16.10;8.03;;;;;;;27.58;66.71;100202.35;1661222;83;21849;-57
2022/08/19 10:05:48;;;;;;;14.58;7.60;;;;;;;27.57;66.55;100203.50;1653000;82;21230;-55
2022/08/19 10:08:54;;;;;;;14.87;7.62;;;;;;;27.52;66.34;100211.96;1665220;84;21808;-56
2022/08/19 10:12:01;;;;;;;17.32;7.60;;;;;;;27.43;66.29;100199.63;1675335;84;21230;-55
2022/08/19 10:15:10;;;;;;;15.23;8.40;;;;;;;27.44;66.19;100196.26;1668330;83;21270;-55
2022/08/19 10:18:18;;;;;;;14.65;7.97;;;;;;;27.36;66.21;100199.13;1652986;86;21218;-55
2022/08/19 10:21:29;;;;;;;18.37;8.18;;;;;;;27.38;66.26;100203.90;1657388;86;21258;-56
2022/08/19 10:24:36;;;;;;;13.38;7.45;;;;;;;27.36;66.16;100202.48;1678565;84;21327;-56
2022/08/19 10:27:45;;;;;;;11.85;7.42;;;;;;;27.40;66.21;100205.83;1672866;83;21306;-57
2022/08/19 10:30:54;;;;;;;15.70;8.05;;;;;;;27.33;65.98;100205.33;1633689;86;21807;-55
2022/08/19 10:34:00;;;;;;;14.20;7.58;;;;;;;27.38;66.25;100204.45;1660451;83;21352;-57
2022/08/19 10:37:10;;;;;;;12.00;7.47;;;;;;;27.61;66.43;100203.73;1632210;85;21302;-59
2022/08/19 10:40:18;;;;;;;16.37;7.62;;;;;;;27.89;66.42;100204.97;1646472;84;21709;-57
2022/08/19 10:43:25;;;;;;;10.43;7.00;;;;;;;28.02;65.99;100211.34;1681752;83;21327;-56
2022/08/19 10:46:33;;;;;;;13.28;7.10;;;;;;;28.03;65.71;100216.68;1671323;83;21261;-56
2022/08/19 10:52:54;;;;;;;12.18;7.08;;;;;;;27.97;65.45;100221.23;1609074;85;21263;-58
2022/08/19 10:59:35;;;;;;;14.10;7.15;;;;;;;28.03;65.50;100211.05;1682915;83;21525;-57
2022/08/19 11:02:41;;;;;;;13.70;7.08;;;;;;;28.17;65.44;100202.19;1665284;83;21293;-57
2022/08/19 11:05:49;;;;;;;18.82;8.10;;;;;;;28.38;65.50;100198.05;1647223;85;21609;-55
2022/08/19 11:08:57;;;;;;;10.60;7.15;;;;;;;28.55;65.30;100206.91;1674277;83;21231;-58
2022/08/19 11:12:05;;;;;;;13.70;7.53;;;;;;;28.56;64.90;100191.67;1655511;83;21745;-56
2022/08/19 11:15:10;;;;;;;12.68;7.28;;;;;;;28.60;64.90;100198.41;1671529;83;21280;-56
2022/08/19 11:18:23;;;;;;;11.78;7.53;;;;;;;28.70;64.81;100191.82;1645538;84;21280;-58
2022/08/19 11:21:33;;;;;;;11.78;6.60;;;;;;;28.76;64.79;100191.47;1670909;83;21279;-58
2022/08/19 11:24:40;;;;;;;14.47;8.45;;;;;;;28.86;64.67;100175.00;1662893;83;21586;-56
2022/08/19 11:27:51;;;;;;;18.52;7.33;;;;;;;28.88;64.49;100175.52;1673811;83;21591;-55
2022/08/19 11:30:59;;;;;;;11.05;7.00;;;;;;;28.93;64.51;100175.45;1681011;83;21811;-56
2022/08/19 11:34:08;;;;;;;11.38;6.67;;;;;;;29.07;64.50;100178.69;1653362;82;21275;-57
2022/08/19 11:37:16;;;;;;;13.30;6.83;;;;;;;29.20;64.32;100177.10;1655541;82;21205;-58
2022/08/19 11:40:22;;;;;;;11.57;6.58;;;;;;;29.32;64.19;100180.30;1672158;83;21823;-57
2022/08/19 11:43:28;;;;;;;15.03;7.33;;;;;;;29.28;63.88;100167.97;1659462;83;21524;-57
2022/08/19 11:46:36;;;;;;;11.63;6.58;;;;;;;29.37;63.86;100173.78;1606462;86;21538;-58
2022/08/19 11:49:42;;;;;;;12.50;6.97;;;;;;;29.45;63.72;100159.81;1648522;85;21212;-57
2022/08/19 11:52:49;;;;;;;16.00;7.58;;;;;;;29.45;63.33;100157.58;1667359;83;21641;-57
2022/08/19 11:55:55;;;;;;;14.15;7.47;;;;;;;29.29;63.00;100169.63;1675483;82;21235;-58
2022/08/19 11:59:05;;;;;;;13.60;6.83;;;;;;;29.30;63.10;100167.66;1655963;85;21242;-57
2022/08/19 12:02:13;;;;;;;16.20;7.35;;;;;;;29.28;62.91;100166.56;1613032;86;21601;-58
2022/08/19 12:05:23;;;;;;;10.85;6.83;;;;;;;29.30;62.96;100159.20;1654490;85;21793;-56
2022/08/19 12:08:34;;;;;;;;;;;;;;;29.34;63.00;100151.80;1650319;85;21797;-57
2022/08/19 12:11:42;;;;;;;9.43;7.08;;;;;;;29.41;62.85;100148.88;1650079;84;20234;-57
2022/08/19 12:14:56;;;;;;;13.90;6.60;;;;;;;29.33;62.51;100148.16;1630298;82;21281;-56
2022/08/19 12:18:04;;;;;;;8.48;5.53;;;;;;;29.31;62.49;100147.61;1669198;82;21228;-57
2022/08/19 12:21:13;;;;;;;13.55;6.12;;;;;;;29.23;62.23;100144.06;1663472;82;21247;-57
2022/08/19 12:24:24;;;;;;;13.98;6.35;;;;;;;29.21;62.22;100148.59;1673152;82;21323;-58
2022/08/19 12:27:29;;;;;;;12.78;7.17;;;;;;;29.19;62.13;100142.41;1633895;84;21203;-60
2022/08/19 12:30:36;;;;;;;12.88;6.05;;;;;;;29.17;61.96;100149.52;1628024;87;21388;-57
2022/08/19 12:33:42;;;;;;;13.85;6.30;;;;;;;29.06;61.69;100153.58;1644596;86;21231;-59
2022/08/19 12:36:49;;;;;;;12.55;6.55;;;;;;;29.01;61.65;100163.52;1670417;81;21300;-59
2022/08/19 12:39:57;;;;;;;14.20;6.40;;;;;;;29.00;61.61;100161.84;1666039;83;21216;-59
2022/08/19 12:43:05;;;;;;;14.90;6.58;;;;;;;28.95;61.43;100168.96;1662297;83;21746;-58
2022/08/19 12:46:15;;;;;;;10.58;6.28;;;;;;;28.92;61.27;100182.25;1662119;83;21783;-56
2022/08/19 12:49:25;;;;;;;10.63;5.90;;;;;;;28.93;61.32;100179.69;1686942;83;21207;-57
2022/08/19 12:52:37;;;;;;;13.45;5.78;;;;;;;28.99;61.17;100177.06;1662390;83;21238;-58
2022/08/19 12:55:44;;;;;;;19.12;6.87;;;;;;;28.96;60.88;100187.54;1657435;82;21525;-57
2022/08/19 12:58:53;;;;;;;12.98;6.80;;;;;;;28.96;60.89;100188.39;1669266;82;21273;-59
2022/08/19 13:02:01;;;;;;;11.70;6.17;;;;;;;28.95;60.73;100188.69;1657761;85;21869;-57
2022/08/19 13:05:08;;;;;;;10.90;6.15;;;;;;;28.84;60.55;100176.69;1673243;83;21308;-56
2022/08/19 13:08:16;;;;;;;17.02;6.53;;;;;;;28.78;60.54;100181.30;1640627;84;21268;-58
2022/08/19 13:11:26;;;;;;;10.78;6.65;;;;;;;28.70;60.53;100179.95;1651065;85;21271;-55
2022/08/19 13:14:32;;;;;;;14.83;6.15;;;;;;;28.72;60.54;100180.50;1645823;84;21620;-57
2022/08/19 13:17:41;;;;;;;10.63;6.05;;;;;;;28.74;60.40;100174.57;1650287;84;21291;-57
2022/08/19 13:20:49;;;;;;;14.10;6.70;;;;;;;28.64;60.23;100178.34;1629492;84;21223;-58
2022/08/19 13:23:58;;;;;;;11.30;6.25;;;;;;;28.64;60.58;100172.70;1635709;86;21262;-59
2022/08/19 13:27:07;;;;;;;17.67;6.92;;;;;;;28.64;60.58;100172.70;1635424;83;22387;-59
2022/08/19 13:33:43;;;;;;;12.20;6.30;;;;;;;28.74;60.04;100170.34;1636915;83;21234;-59
2022/08/19 13:36:49;;;;;;;11.70;6.70;;;;;;;28.73;59.97;100175.72;1621777;85;21890;-59
2022/08/19 13:39:58;;;;;;;10.95;5.92;;;;;;;28.78;59.94;100184.13;1655533;83;21240;-59
2022/08/19 13:43:06;;;;;;;12.85;6.00;;;;;;;28.80;59.80;100183.23;1667145;82;21772;-59
2022/08/19 13:46:19;;;;;;;14.65;6.17;;;;;;;28.82;59.73;100186.59;1657917;82;21374;-59
2022/08/19 13:49:27;;;;;;;13.08;6.10;;;;;;;28.76;59.58;100178.78;1665738;83;21234;-60
2022/08/19 13:52:33;;;;;;;10.08;6.15;;;;;;;28.66;59.45;100178.05;1663830;83;21649;-59
2022/08/19 13:55:42;;;;;;;20.75;10.13;;;;;;;28.61;59.53;100176.69;1664603;83;21239;-57
2022/08/19 13:58:49;;;;;;;19.25;7.12;;;;;;;28.52;59.37;100175.12;1670893;84;21821;-60
2022/08/19 14:01:59;;;;;;;15.18;6.20;;;;;;;28.47;59.33;100178.52;1671232;85;21291;-59
2022/08/19 14:05:06;;;;;;;12.45;5.60;;;;;;;28.46;59.38;100186.70;1654954;84;21707;-60
2022/08/19 14:08:13;;;;;;;13.45;6.17;;;;;;;28.56;59.47;100190.86;1674786;83;21235;-59
2022/08/19 14:11:19;;;;;;;12.58;5.37;;;;;;;28.66;59.32;100197.20;1627231;86;21256;-59
2022/08/19 14:14:24;;;;;;;10.13;5.25;;;;;;;28.68;59.12;100196.91;1600405;87;21265;-59
2022/08/19 14:17:34;;;;;;;13.65;5.90;;;;;;;28.68;58.97;100199.73;1622472;85;21265;-59
2022/08/19 14:20:41;;;;;;;15.43;7.17;;;;;;;28.69;58.89;100200.84;1625470;87;21237;-56
2022/08/19 14:23:46;;;;;;;15.32;6.40;;;;;;;28.62;58.64;100205.16;1649940;83;21303;-58
2022/08/19 14:26:54;;;;;;;13.68;5.40;;;;;;;28.49;58.58;100196.00;1663450;86;21231;-57
2022/08/19 14:30:00;;;;;;;15.03;5.87;;;;;;;28.40;58.52;100192.13;1621611;85;21242;-58
2022/08/19 14:33:08;;;;;;;12.78;6.10;;;;;;;28.34;58.54;100198.92;1622120;88;21625;-57
2022/08/19 14:36:16;;;;;;;14.23;5.50;;;;;;;28.31;58.51;100198.11;1622346;85;21292;-58
2022/08/19 14:39:23;;;;;;;17.10;5.65;;;;;;;28.20;58.41;100205.83;1690540;83;21358;-59
2022/08/19 14:42:30;;;;;;;11.53;5.28;;;;;;;28.08;58.42;100209.61;1666466;83;21280;-58
2022/08/19 14:45:36;;;;;;;12.98;5.35;;;;;;;28.00;58.44;100206.57;1600761;85;21787;-57
2022/08/19 14:48:42;;;;;;;11.55;4.67;;;;;;;27.98;58.41;100212.50;1617397;87;21828;-59
2022/08/19 14:51:51;;;;;;;13.65;4.62;;;;;;;27.84;58.32;100223.53;1637514;85;21196;-58
2022/08/19 14:55:01;;;;;;;15.10;4.80;;;;;;;27.72;58.35;100209.00;1635326;84;21224;-57
2022/08/19 14:58:08;;;;;;;15.28;4.65;;;;;;;27.68;58.34;100204.25;1638276;85;21270;-58
2022/08/19 15:01:15;;;;;;;10.00;4.30;;;;;;;27.65;58.37;100204.25;1690026;83;21803;-58
2022/08/19 15:04:22;;;;;;;9.23;4.30;;;;;;;27.69;58.40;100202.55;1622902;84;21287;-57